x

Portland 12 Nm Southeast Of Portland,me (44007) Wave Buoy

9:50pm - Sat 31st Jan 2015 All times are EST. -5 hours from GMT.

  • Sig Wave height 2.3ft
  • Swell Direction
  • Peak Period 10s
  • Average Period 4s
  • Wind
    22mph, 27mph gusts
  • Sea Temp 39°f
  • 空気 Temp 16°f
  • Sea Pressure 1012.7mb
  • Portland 12 Nm Southeast Of Portland,me
  • Portland 12 Nm Southeast Of Portland,me

More Historic Weather Station data

Upgrade to MSW Pro to gain access to the past 30 days of data for over 8000 Wavebouys and Weather Stations around the globe.

Join Pro

Comparision Forecast

View Surf forecast
   
Sat 01/31 9:50pm 2.5ft 10s 4s 22 27 mph 1012.7mb 39f 16f
8:50pm 2.5ft 9s 4s 16 22 mph 1012.5mb 38f 16f
7:50pm 3ft 9s 4s 22 29 mph 1011.9mb 38f 17f
6:50pm 3ft 10s 4s 27 31 mph 1011.4mb 38f 19f
5:50pm 3.5ft 4s 4s 27 36 mph 1010.9mb 38f 19f
4:50pm 4ft 9s 4s 36 43 mph 1009.2mb 38f 22f
3:50pm 4ft 10s 4s 27 34 mph 1008.6mb 39f 22f
2:50pm 4ft 9s 4s 31 38 mph 1007.4mb 39f 22f
1:50pm 4ft 4s 4s 31 38 mph 1006.4mb 39f 22f
12:50pm 4ft 4s 4s 34 38 mph 1005.9mb 39f 21f
11:50am 3.5ft 4s 4s 31 38 mph 1006.2mb 40f 19f
10:50am 4ft 4s 4s 31 40 mph 1006.1mb 40f 18f
9:50am 4.5ft 4s 4s 34 43 mph 1005.9mb 40f 17f
8:50am 4ft 4s 4s 34 40 mph 1005.7mb 40f 17f
7:50am 4ft 5s 4s 29 38 mph 1005.7mb 40f 18f
6:50am 4.5ft 4s 4s 29 38 mph 1005.4mb 40f 19f
5:50am 4.5ft 5s 4s 31 38 mph 1004.8mb 40f 20f
4:50am 5ft 5s 4s 34 45 mph 1003.6mb 41f 20f
3:50am 4.5ft 5s 4s 36 43 mph 1003mb 40f 21f
2:50am 4.5ft 5s 4s 38 45 mph 1002.8mb 40f 21f
1:50am 4ft 4s 4s 34 43 mph 1003.3mb 40f 23f
12:50am 4ft 4s 4s 34 40 mph 1002.9mb 40f 24f
Fri 01/30 11:50pm 3.5ft 4s 4s 34 40 mph 1003.4mb 40f 25f
10:50pm 4ft 4s 4s 29 38 mph 1004mb 40f 26f
9:50pm 3.5ft 4s 4s 34 40 mph 1003.6mb 40f 28f
8:50pm 3ft 3s 4s 27 31 mph 1004mb 40f 31f
7:50pm 2.5ft 6s 4s 22 27 mph 1004.4mb 40f 33f
6:50pm 3ft 6s 4s 20 27 mph 1004.6mb 40f 32f
5:50pm 3.5ft 6s 5s 18 20 mph 1005.1mb 40f 32f
4:50pm 3.5ft 6s 5s 18 20 mph 1005mb 39f 31f
3:50pm 3.5ft 11s 5s 11 16 mph 1005.7mb 39f 30f
2:50pm 3.5ft 6s 6s 13 16 mph 1005.3mb 39f 31f
1:50pm 3.5ft 5s 5s 13 16 mph 1006mb 40f 30f
12:50pm 3.5ft 5s 5s 16
mph
1006.6mb 40f 29f
11:50am 4ft 5s 5s 13 16 mph 1007.5mb 41f 30f
10:50am 3.5ft 5s 5s 11
mph
1008.4mb 41f 32f
9:50am 3.5ft 11s 4s 7 13 mph 1009mb 41f 36f
8:50am 3.5ft 5s 4s 18 20 mph 1009.2mb 41f 39f
7:50am 3.5ft 4s 4s 18 20 mph 1009.8mb 41f 38f
6:50am 3ft 4s 4s 16 20 mph 1010.4mb 41f 37f
5:50am 3ft 4s 4s 16 20 mph 1011.4mb 41f 37f
4:50am 2.5ft 11s 4s 16 20 mph 1012.4mb 41f 35f
3:50am 3ft 10s 5s 16 18 mph 1013.6mb 41f 33f
2:50am 3ft 11s 5s 11 13 mph 1014.8mb 41f 33f
1:50am 2.5ft 10s 5s 11 13 mph 1016.2mb 40f 33f
12:50am 2.5ft 10s 6s 2 7 mph 1016.9mb 40f 32f
Thu 01/29 11:50pm 2.5ft 10s 6s 2 4 mph 1018mb 40f 32f
10:50pm 2ft 11s 5s 4 7 mph 1018.1mb 40f 31f
9:50pm 2ft 10s 5s 7
mph
1018.7mb 41f 31f
8:50pm 2ft 11s 5s 7 11 mph 1019.5mb 41f 32f
7:50pm 2ft 11s 6s 11 13 mph 1020.4mb 41f 34f
6:50pm 2ft 11s 6s 7 9 mph 1020.9mb 40f 33f
5:50pm 2ft 11s 6s 7 9 mph 1021.3mb 40f 31f
4:50pm 2ft 11s  -  4 7 mph 1021.6mb 41f 30f
3:50pm 2.5ft 11s 7s 2 4 mph 1022.2mb 41f 29f
2:50pm 2.5ft 10s 8s  -  4 mph 1023.3mb 41f 29f
1:50pm 2.5ft 10s 8s 2 7 mph 1023.5mb 41f 27f
12:50pm 3ft 10s 8s 4 7 mph 1024.3mb 40f 25f
11:50am 2.5ft 10s 8s 4 9 mph 1025.5mb 40f 25f
10:50am 2.5ft 10s 8s 4 7 mph 1026.5mb 40f 24f
9:50am 2.5ft 10s 8s 4 7 mph 1026.5mb 40f 23f
8:50am 2.5ft 11s 8s 4 9 mph 1026.2mb 40f 21f
7:50am 2.5ft 11s 7s 7 9 mph 1025.7mb 40f 21f
6:50am 2.5ft 11s 6s 4 7 mph 1025.1mb 40f 21f
5:50am 2.5ft 10s 6s 7 9 mph 1025.1mb 40f 20f
4:50am 2.5ft 11s 6s 13 16 mph 1024.9mb 40f 22f
3:50am 2.5ft 11s 6s 11 16 mph 1024.2mb 40f 23f
2:50am 3.5ft 12s 7s 11 13 mph 1024.5mb 40f 22f
1:50am 3.5ft 11s 8s 11 13 mph 1024.3mb 40f 22f
12:50am 3.5ft 10s 7s 9 11 mph 1023.6mb 40f 21f
Wed 01/28 11:50pm 3.5ft 11s 7s 11 16 mph 1022.8mb 40f 23f
10:50pm 3.5ft 11s 7s 13 18 mph 1022.1mb 40f 22f
9:50pm 4ft 11s 6s 11 13 mph 1021.4mb 40f 22f
8:50pm 4ft 11s 6s 20 25 mph 1020.5mb 41f 24f
7:50pm 3.5ft 11s 5s 18 22 mph 1019.7mb 41f 26f
6:50pm 3.5ft 12s 5s 18 22 mph 1018.2mb 41f 26f
5:50pm 4ft 12s 6s 25 29 mph 1016.7mb 41f 27f
4:50pm 4ft 12s 6s 20 25 mph 1015.7mb 41f 27f
3:50pm 4.5ft 13s 6s 18 22 mph 1015mb 40f 26f
2:50pm 5ft 13s 7s 22 29 mph 1013.8mb 40f 26f
1:50pm 5ft 12s 6s 20 25 mph 1012.9mb 40f 25f
12:50pm 5ft 10s 6s 20 27 mph 1012.4mb 40f 24f
11:50am 5.5ft 11s 6s 22 27 mph 1012.5mb 40f 22f
10:50am 6ft 11s 6s 25 31 mph 1012.6mb 40f 21f
9:50am 6.5ft 11s 7s 27 31 mph 1011.9mb 40f 20f
8:50am 7ft 11s 7s 22 27 mph 1010.9mb 40f 20f
7:50am 7ft 11s 7s 18 25 mph 1009.7mb 40f 19f
6:50am 10ft 12s 8s 25 29 mph 1007.8mb 40f 20f
5:50am 9ft 12s 7s 27 34 mph 1006.4mb 41f 19f
4:50am 10ft 12s 8s 29 36 mph 1005.1mb 41f 19f